Time;durP1;ratioP1;P1;durP2;ratioP2;P2;SDS_P1;SDS_P2;PMS_P1;PMS_P2;Temp;Humidity;BMP_temperature;BMP_pressure;BME280_temperature;BME280_humidity;BME280_pressure;Samples;Min_cycle;Max_cycle;Signal;HPM_P1;HPM_P2
2022/03/22 00:02:17;;;;;;;82.70;52.72;;;;;;;2.53;100.00;103133.56;4945119;28;20122;-74
2022/03/22 00:04:42;;;;;;;87.25;52.83;;;;;;;2.50;100.00;103140.91;4928312;28;20042;-74
2022/03/22 00:07:08;;;;;;;88.75;53.67;;;;;;;2.45;100.00;103141.19;4944259;28;20069;-75
2022/03/22 00:09:34;;;;;;;79.78;50.50;;;;;;;2.45;100.00;103138.53;4930036;28;20046;-75
2022/03/22 00:12:00;;;;;;;91.22;52.88;;;;;;;2.49;100.00;103137.41;4926149;28;20034;-74
2022/03/22 00:14:26;;;;;;;86.05;52.45;;;;;;;2.49;100.00;103140.06;4929940;28;20558;-74
2022/03/22 00:16:53;;;;;;;88.65;53.40;;;;;;;2.47;100.00;103139.31;4940849;28;21581;-74
2022/03/22 00:19:19;;;;;;;89.15;53.83;;;;;;;2.39;100.00;103128.34;4927987;28;20073;-74
2022/03/22 00:21:46;;;;;;;88.80;54.03;;;;;;;2.36;100.00;103133.84;4928358;28;22742;-74
2022/03/22 00:24:12;;;;;;;88.03;52.53;;;;;;;2.37;100.00;103130.22;4943635;28;21211;-74
2022/03/22 00:26:38;;;;;;;96.70;55.65;;;;;;;2.37;100.00;103122.25;4928065;28;20054;-74
2022/03/22 00:29:03;;;;;;;87.03;56.00;;;;;;;2.43;100.00;103129.84;4944583;28;20026;-74
2022/03/22 00:31:32;;;;;;;92.55;55.67;;;;;;;2.39;100.00;103120.34;4912199;28;20049;-74
2022/03/22 00:33:58;;;;;;;93.57;55.05;;;;;;;2.39;100.00;103131.00;4935989;28;20382;-74
2022/03/22 00:36:23;;;;;;;89.55;54.20;;;;;;;2.33;100.00;103128.75;4926974;28;20045;-74
2022/03/22 00:38:49;;;;;;;95.80;57.28;;;;;;;2.29;100.00;103130.75;4931528;28;20053;-74
2022/03/22 00:41:16;;;;;;;90.95;54.30;;;;;;;2.29;100.00;103136.06;4944752;28;22503;-74
2022/03/22 00:43:43;;;;;;;93.63;54.08;;;;;;;2.29;100.00;103132.56;4913915;28;20046;-74
2022/03/22 00:46:09;;;;;;;88.68;55.53;;;;;;;2.25;100.00;103131.91;4928906;28;20813;-74
2022/03/22 00:48:35;;;;;;;100.82;58.08;;;;;;;2.24;100.00;103130.19;4917340;28;20054;-74
2022/03/22 00:51:01;;;;;;;95.95;55.95;;;;;;;2.24;100.00;103121.38;4952414;28;20065;-74
2022/03/22 00:53:26;;;;;;;98.35;57.75;;;;;;;2.32;100.00;103124.38;4916321;28;20410;-74
2022/03/22 00:55:52;;;;;;;93.38;56.97;;;;;;;2.33;100.00;103126.09;4949978;28;20027;-74
2022/03/22 00:58:18;;;;;;;91.90;55.15;;;;;;;2.36;100.00;103128.53;4949880;28;20037;-74
2022/03/22 01:00:43;;;;;;;93.07;55.60;;;;;;;2.35;100.00;103121.50;4931573;28;20046;-74
2022/03/22 01:03:12;;;;;;;97.13;57.40;;;;;;;2.34;100.00;103123.31;4939354;28;20056;-74
2022/03/22 01:05:38;;;;;;;101.25;57.40;;;;;;;2.35;100.00;103126.81;4930455;28;20046;-74
2022/03/22 01:08:06;;;;;;;99.18;55.67;;;;;;;2.36;100.00;103124.06;4938612;28;23802;-74
2022/03/22 01:10:34;;;;;;;93.75;54.33;;;;;;;2.39;100.00;103128.34;4914071;28;20201;-74
2022/03/22 01:13:00;;;;;;;100.05;56.50;;;;;;;2.35;100.00;103116.19;4939630;28;20030;-74
2022/03/22 01:15:32;;;;;;;91.60;55.90;;;;;;;2.28;100.00;103126.41;4922153;28;20509;-73
2022/03/22 01:17:58;;;;;;;92.25;56.42;;;;;;;2.30;100.00;103129.78;4932770;28;22652;-74
2022/03/22 01:20:27;;;;;;;96.82;56.38;;;;;;;2.32;100.00;103121.72;4931082;28;20038;-74
2022/03/22 01:22:54;;;;;;;99.82;56.70;;;;;;;2.31;100.00;103128.81;4921781;28;20170;-74
2022/03/22 01:25:23;;;;;;;104.38;58.08;;;;;;;2.30;100.00;103118.31;4947687;28;20030;-74
2022/03/22 01:27:49;;;;;;;107.10;58.90;;;;;;;2.32;100.00;103127.03;4923710;28;20112;-74
2022/03/22 01:30:19;;;;;;;105.03;58.22;;;;;;;2.35;100.00;103124.16;4948891;28;20116;-74
2022/03/22 01:32:48;;;;;;;109.30;60.55;;;;;;;2.35;100.00;103119.72;4923605;28;20052;-74
2022/03/22 01:35:14;;;;;;;105.85;60.70;;;;;;;2.36;100.00;103123.22;4933670;28;20053;-74
2022/03/22 01:37:40;;;;;;;104.05;58.63;;;;;;;2.32;100.00;103121.72;4932347;28;20061;-74
2022/03/22 01:40:07;;;;;;;99.95;57.38;;;;;;;2.31;100.00;103114.69;4947087;28;20038;-74
2022/03/22 01:42:33;;;;;;;97.72;57.83;;;;;;;2.23;100.00;103111.69;4946669;28;20139;-74
2022/03/22 01:44:59;;;;;;;100.43;56.60;;;;;;;2.20;100.00;103118.06;4917712;28;20050;-74
2022/03/22 01:47:24;;;;;;;94.53;56.38;;;;;;;2.17;100.00;103117.41;4937167;28;20033;-74
2022/03/22 01:49:50;;;;;;;104.82;57.97;;;;;;;2.17;100.00;103112.09;4916448;28;20058;-74
2022/03/22 01:52:23;;;;;;;107.70;60.58;;;;;;;2.22;100.00;103104.69;4934849;28;20038;-74
2022/03/22 01:54:50;;;;;;;110.70;61.17;;;;;;;2.22;100.00;103110.00;4915531;28;20046;-74
2022/03/22 01:57:17;;;;;;;98.40;57.67;;;;;;;2.18;100.00;103113.78;4946529;28;22857;-74
2022/03/22 01:59:44;;;;;;;113.00;59.67;;;;;;;2.13;100.00;103114.97;4922984;28;20048;-74
2022/03/22 02:07:39;;;;;;;107.43;60.33;;;;;;;2.04;100.00;103106.75;4918391;28;20487;-74
2022/03/22 02:10:05;;;;;;;106.82;61.38;;;;;;;2.03;100.00;103100.56;4919036;28;20042;-74
2022/03/22 02:12:30;;;;;;;101.80;59.65;;;;;;;2.07;100.00;103112.72;4913263;28;20139;-74
2022/03/22 02:14:56;;;;;;;108.07;60.30;;;;;;;2.12;100.00;103104.44;4920752;28;20044;-74
2022/03/22 02:17:22;;;;;;;106.78;62.38;;;;;;;2.11;100.00;103108.91;4928006;28;20057;-74
2022/03/22 02:19:47;;;;;;;100.18;61.03;;;;;;;2.06;100.00;103096.84;4948594;28;21118;-74
2022/03/22 02:22:17;;;;;;;104.15;61.25;;;;;;;2.03;100.00;103100.56;4920328;28;20065;-74
2022/03/22 02:24:42;;;;;;;106.72;61.42;;;;;;;2.08;100.00;103106.44;4938554;28;20030;-74
2022/03/22 02:27:09;;;;;;;108.07;58.25;;;;;;;2.12;100.00;103105.28;4923527;28;20869;-74
2022/03/22 02:29:35;;;;;;;109.15;62.75;;;;;;;2.17;100.00;103102.31;4935213;28;20410;-74
2022/03/22 02:32:04;;;;;;;109.80;62.65;;;;;;;2.17;100.00;103112.09;4938328;28;20334;-74
2022/03/22 02:34:30;;;;;;;115.75;62.85;;;;;;;2.22;100.00;103102.03;4930675;28;20553;-74
2022/03/22 02:36:57;;;;;;;110.32;63.45;;;;;;;2.27;100.00;103107.88;4946522;28;20037;-74
2022/03/22 02:39:24;;;;;;;120.20;66.95;;;;;;;2.28;100.00;103099.81;4907562;28;20152;-74
2022/03/22 02:41:51;;;;;;;110.53;62.22;;;;;;;2.30;100.00;103094.38;4935010;28;20034;-74
2022/03/22 02:44:18;;;;;;;116.05;64.80;;;;;;;2.33;100.00;103091.50;4930279;28;20046;-74
2022/03/22 02:46:44;;;;;;;112.25;62.45;;;;;;;2.33;100.00;103096.81;4935778;28;20034;-74
2022/03/22 02:49:10;;;;;;;105.47;62.53;;;;;;;2.34;100.00;103085.22;4942225;28;20069;-74
2022/03/22 02:51:36;;;;;;;108.85;59.20;;;;;;;2.29;100.00;103095.34;4934472;28;20184;-74
2022/03/22 02:54:01;;;;;;;107.63;63.58;;;;;;;2.31;100.00;103093.41;4931210;28;22715;-74
2022/03/22 02:56:27;;;;;;;117.55;63.83;;;;;;;2.27;100.00;103097.22;4930470;28;23658;-74
2022/03/22 02:58:53;;;;;;;121.45;65.25;;;;;;;2.25;100.00;103097.34;4936018;28;20249;-74
2022/03/22 03:01:18;;;;;;;114.47;65.05;;;;;;;2.21;100.00;103092.31;4923589;28;20059;-74
2022/03/22 03:03:43;;;;;;;112.90;65.35;;;;;;;2.23;100.00;103101.06;4897792;28;20975;-74
2022/03/22 03:06:09;;;;;;;120.93;65.25;;;;;;;2.41;100.00;103099.81;4896603;28;20070;-74
2022/03/22 03:08:35;;;;;;;117.47;63.50;;;;;;;2.43;100.00;103097.91;4943708;28;20192;-74
2022/03/22 03:11:01;;;;;;;111.03;63.35;;;;;;;2.38;100.00;103100.84;4944788;28;20042;-74
2022/03/22 03:14:38;;;;;;;113.07;63.08;;;;;;;2.42;100.00;103106.81;4927283;28;20042;-74
2022/03/22 03:16:12;;;;;;;120.18;64.75;;;;;;;2.37;100.00;103108.97;4943629;28;20034;-74
2022/03/22 03:18:37;;;;;;;110.63;63.10;;;;;;;2.34;100.00;103103.84;4929018;28;20054;-74
2022/03/22 03:21:03;;;;;;;114.18;64.57;;;;;;;2.37;100.00;103099.16;4944444;28;21007;-74
2022/03/22 03:23:28;;;;;;;118.10;66.53;;;;;;;2.39;100.00;103099.09;4929458;28;20054;-74
2022/03/22 03:25:54;;;;;;;112.03;64.40;;;;;;;2.36;100.00;103107.25;4946270;28;20949;-74
2022/03/22 03:28:19;;;;;;;111.60;65.25;;;;;;;2.29;100.00;103095.34;4910613;28;20065;-74
2022/03/22 03:30:45;;;;;;;105.10;62.22;;;;;;;2.26;100.00;103100.84;4925869;28;21083;-74
2022/03/22 03:33:11;;;;;;;108.75;60.88;;;;;;;2.20;100.00;103101.25;4927005;28;20445;-74
2022/03/22 03:35:36;;;;;;;108.28;61.40;;;;;;;2.18;100.00;103103.16;4902535;28;20062;-74
2022/03/22 03:38:02;;;;;;;105.85;61.65;;;;;;;2.26;100.00;103106.19;4899052;28;20059;-74
2022/03/22 03:41:53;;;;;;;114.50;65.50;;;;;;;2.33;100.00;103107.47;4902819;28;20138;-74
2022/03/22 03:43:13;;;;;;;108.60;62.60;;;;;;;2.28;100.00;103109.56;4925362;28;20070;-74
2022/03/22 03:48:22;;;;;;;108.05;64.32;;;;;;;2.23;100.00;103103.72;4924982;28;20241;-74
2022/03/22 03:50:48;;;;;;;107.10;62.63;;;;;;;2.23;100.00;103112.53;4910981;28;20058;-74
2022/03/22 03:53:13;;;;;;;111.15;63.40;;;;;;;2.22;100.00;103113.50;4925206;28;20030;-74
2022/03/22 03:55:39;;;;;;;117.20;64.22;;;;;;;2.15;100.00;103107.75;4911552;28;20038;-74
2022/03/22 03:58:04;;;;;;;115.75;64.85;;;;;;;2.18;100.00;103103.16;4906792;28;20035;-74
2022/03/22 04:00:29;;;;;;;106.82;62.90;;;;;;;2.24;100.00;103113.38;4907105;28;20058;-74
2022/03/22 04:02:56;;;;;;;108.10;60.28;;;;;;;2.22;100.00;103116.16;4894783;28;20051;-74
2022/03/22 04:05:21;;;;;;;108.68;62.30;;;;;;;2.20;100.00;103118.06;4905835;28;20086;-74
2022/03/22 04:07:47;;;;;;;114.68;63.33;;;;;;;2.26;100.00;103122.97;4899275;28;21066;-74
2022/03/22 04:10:12;;;;;;;113.38;66.07;;;;;;;2.35;100.00;103132.13;4926859;28;20072;-74
2022/03/22 04:12:41;;;;;;;109.60;64.18;;;;;;;2.40;100.00;103124.72;4906047;28;20050;-74
2022/03/22 04:15:07;;;;;;;108.47;64.93;;;;;;;2.51;100.00;103131.97;4905453;28;20025;-74
2022/03/22 04:17:34;;;;;;;111.95;64.35;;;;;;;2.58;100.00;103133.25;4903163;28;20027;-74
2022/03/22 04:20:00;;;;;;;106.65;64.70;;;;;;;2.67;100.00;103137.97;4913310;28;20057;-74
2022/03/22 04:22:25;;;;;;;103.47;63.30;;;;;;;2.65;100.00;103133.69;4929637;28;20043;-74
2022/03/22 04:24:51;;;;;;;112.72;62.97;;;;;;;2.61;100.00;103133.91;4915439;28;20647;-74
2022/03/22 04:32:45;;;;;;;102.82;60.20;;;;;;;2.39;100.00;103128.34;4947884;28;20068;-74
2022/03/22 04:35:19;;;;;;;98.88;60.10;;;;;;;2.31;100.00;103133.31;4923831;28;20054;-74
2022/03/22 04:37:44;;;;;;;;;;;;;;;2.23;100.00;103132.97;4934053;28;20030;-74
2022/03/22 04:40:10;;;;;;;94.18;56.80;;;;;;;2.12;100.00;103126.56;4917867;28;20500;-74
2022/03/22 04:42:37;;;;;;;103.22;57.10;;;;;;;2.02;100.00;103129.91;4932833;28;20044;-74
2022/03/22 04:45:06;;;;;;;100.32;60.22;;;;;;;1.99;100.00;103123.00;4934999;28;20048;-74
2022/03/22 04:47:32;;;;;;;100.80;61.10;;;;;;;2.01;100.00;103129.06;4929197;28;20054;-74
2022/03/22 04:49:59;;;;;;;99.05;58.83;;;;;;;1.97;100.00;103124.06;4940316;28;20038;-73
2022/03/22 04:57:53;;;;;;;103.20;58.78;;;;;;;1.88;100.00;103123.69;4910323;28;20065;-74
2022/03/22 05:00:19;;;;;;;105.13;60.42;;;;;;;1.83;100.00;103130.28;4928129;28;20031;-74
2022/03/22 05:02:45;;;;;;;108.40;60.88;;;;;;;1.86;100.00;103138.03;4918994;28;20050;-74
2022/03/22 05:05:11;;;;;;;108.38;59.75;;;;;;;1.86;100.00;103130.06;4947822;28;20064;-74
2022/03/22 05:07:36;;;;;;;113.72;62.28;;;;;;;1.86;100.00;103136.25;4930646;28;22507;-74
2022/03/22 05:10:02;;;;;;;97.95;60.05;;;;;;;1.88;100.00;103133.47;4929846;28;20104;-74
2022/03/22 05:12:28;;;;;;;104.60;60.00;;;;;;;1.90;100.00;103137.75;4929492;28;20199;-74
2022/03/22 05:14:53;;;;;;;94.97;56.58;;;;;;;1.78;100.00;103127.06;4919701;28;20622;-74
2022/03/22 05:17:23;;;;;;;101.60;58.97;;;;;;;1.76;100.00;103132.47;4937335;28;20042;-74
2022/03/22 05:19:50;;;;;;;105.93;60.55;;;;;;;1.73;100.00;103134.47;4914452;28;20046;-74
2022/03/22 05:22:17;;;;;;;101.80;59.67;;;;;;;1.71;100.00;103141.69;4931904;28;24072;-74
2022/03/22 05:24:42;;;;;;;107.13;60.13;;;;;;;1.63;100.00;103134.22;4912784;28;20051;-74
2022/03/22 05:27:08;;;;;;;98.55;60.13;;;;;;;1.65;100.00;103142.91;4926411;28;20128;-74
2022/03/22 05:29:33;;;;;;;101.78;60.10;;;;;;;1.72;100.00;103143.38;4927216;28;20167;-74
2022/03/22 05:32:00;;;;;;;104.05;62.30;;;;;;;1.83;100.00;103151.53;4914869;28;21104;-74
2022/03/22 05:34:25;;;;;;;104.15;61.40;;;;;;;1.89;100.00;103151.13;4924995;28;20034;-74
2022/03/22 05:36:51;;;;;;;108.63;62.20;;;;;;;1.88;100.00;103149.44;4918969;28;20112;-74
2022/03/22 05:39:16;;;;;;;100.47;59.15;;;;;;;1.86;100.00;103156.63;4934014;28;20042;-73
2022/03/22 05:41:42;;;;;;;110.88;62.83;;;;;;;1.91;100.00;103154.56;4912525;28;20058;-73
2022/03/22 05:44:10;;;;;;;122.13;66.50;;;;;;;2.05;100.00;103157.16;4927615;28;22494;-73
2022/03/22 05:46:35;;;;;;;112.90;64.30;;;;;;;2.14;100.00;103161.88;4919429;28;20055;-73
2022/03/22 05:49:01;;;;;;;102.22;61.88;;;;;;;2.13;100.00;103159.31;4929184;28;23688;-73
2022/03/22 05:51:26;;;;;;;109.45;63.63;;;;;;;2.18;100.00;103162.53;4927824;28;20090;-74
2022/03/22 05:53:52;;;;;;;105.75;61.47;;;;;;;2.29;100.00;103161.81;4911386;28;20053;-74
2022/03/22 05:56:18;;;;;;;118.32;64.97;;;;;;;2.40;100.00;103153.97;4926632;28;20940;-74
2022/03/22 05:58:43;;;;;;;113.20;64.25;;;;;;;2.55;100.00;103166.25;4912537;28;24092;-74
2022/03/22 06:01:09;;;;;;;110.18;64.55;;;;;;;2.61;100.00;103170.31;4926969;28;20049;-74
2022/03/22 06:03:35;;;;;;;111.15;64.07;;;;;;;2.70;100.00;103171.47;4904145;28;20124;-74
2022/03/22 06:06:01;;;;;;;106.30;62.05;;;;;;;2.70;100.00;103169.66;4945694;28;20504;-74
2022/03/22 06:08:27;;;;;;;95.40;60.63;;;;;;;2.75;100.00;103178.19;4913398;28;20030;-74
2022/03/22 06:10:52;;;;;;;98.35;59.72;;;;;;;2.81;100.00;103174.28;4945577;28;20521;-74
2022/03/22 06:13:18;;;;;;;103.10;61.42;;;;;;;2.98;100.00;103173.94;4945769;28;20073;-74
2022/03/22 06:15:44;;;;;;;101.82;62.33;;;;;;;3.08;100.00;103169.69;4919939;28;20123;-74
2022/03/22 06:18:11;;;;;;;102.97;60.85;;;;;;;3.22;100.00;103182.03;4946039;28;20109;-74
2022/03/22 06:20:39;;;;;;;104.20;61.22;;;;;;;3.27;100.00;103173.75;4920577;28;20143;-74
2022/03/22 06:23:06;;;;;;;98.07;60.78;;;;;;;3.39;100.00;103178.19;4937539;28;20068;-74
2022/03/22 06:25:33;;;;;;;97.38;61.80;;;;;;;3.53;100.00;103178.06;4929434;28;20177;-74
2022/03/22 06:27:58;;;;;;;96.75;59.30;;;;;;;3.73;100.00;103181.13;4897743;28;1165242;-74
2022/03/22 06:30:25;;;;;;;99.20;62.47;;;;;;;3.96;100.00;103172.28;4940442;28;20041;-74
2022/03/22 06:32:53;;;;;;;109.22;66.00;;;;;;;4.21;100.00;103175.81;4924474;28;20058;-75
2022/03/22 06:35:29;;;;;;;97.97;63.63;;;;;;;4.57;100.00;103176.72;4929969;28;20747;-75
2022/03/22 06:37:55;;;;;;;97.40;61.55;;;;;;;4.92;100.00;103184.69;4932866;28;20590;-75
2022/03/22 06:40:23;;;;;;;88.30;57.55;;;;;;;5.23;100.00;103185.84;4938296;28;20077;-75
2022/03/22 06:42:49;;;;;;;99.50;58.40;;;;;;;5.55;100.00;103185.94;4917446;28;20046;-75
2022/03/22 06:45:15;;;;;;;83.43;55.85;;;;;;;5.88;100.00;103182.38;4923993;28;20129;-75
2022/03/22 06:47:42;;;;;;;80.03;54.08;;;;;;;6.15;100.00;103189.16;4902959;28;20064;-75
2022/03/22 06:50:13;;;;;;;79.15;55.58;;;;;;;6.41;100.00;103195.88;4919271;28;20584;-75
2022/03/22 06:52:39;;;;;;;73.07;52.40;;;;;;;6.71;100.00;103199.63;4916603;28;20045;-75
2022/03/22 06:55:05;;;;;;;74.03;50.08;;;;;;;7.00;100.00;103205.19;4929844;28;20022;-74
2022/03/22 06:57:31;;;;;;;69.93;49.50;;;;;;;7.26;100.00;103208.28;4949284;28;20069;-74
2022/03/22 06:59:58;;;;;;;63.80;45.75;;;;;;;7.48;100.00;103214.47;4917163;28;21104;-74
2022/03/22 07:02:24;;;;;;;68.97;44.92;;;;;;;7.64;100.00;103207.59;4937435;28;20057;-74
2022/03/22 07:04:50;;;;;;;66.13;44.75;;;;;;;7.78;100.00;103209.06;4923455;28;20065;-73
2022/03/22 07:07:15;;;;;;;62.50;44.45;;;;;;;8.01;100.00;103203.50;4900341;28;20042;-73
2022/03/22 07:09:44;;;;;;;72.68;45.00;;;;;;;8.23;100.00;103203.22;4910508;28;20085;-73
2022/03/22 07:12:10;;;;;;;61.47;43.42;;;;;;;8.58;100.00;103204.56;4931995;28;20034;-73
2022/03/22 07:14:40;;;;;;;68.53;43.58;;;;;;;8.90;100.00;103206.06;4939639;28;20124;-73
2022/03/22 07:17:10;;;;;;;57.75;41.45;;;;;;;9.18;100.00;103210.53;4914878;28;20159;-74
2022/03/22 07:19:36;;;;;;;56.88;38.28;;;;;;;9.59;100.00;103208.41;4907762;28;20042;-74
2022/03/22 07:22:03;;;;;;;52.10;38.45;;;;;;;9.76;100.00;103215.72;4910813;28;20070;-74
2022/03/22 07:24:28;;;;;;;59.75;40.55;;;;;;;9.94;100.00;103212.22;4940939;28;20936;-74
2022/03/22 07:26:54;;;;;;;60.05;39.28;;;;;;;10.39;100.00;103212.22;4920712;28;20055;-73
2022/03/22 07:29:20;;;;;;;56.80;39.47;;;;;;;10.54;100.00;103209.81;4937609;28;20050;-73
2022/03/22 07:31:46;;;;;;;55.63;40.58;;;;;;;11.03;100.00;103221.00;4896538;28;20051;-74
2022/03/22 07:34:15;;;;;;;55.97;38.10;;;;;;;11.52;100.00;103218.59;4926305;28;20101;-73
2022/03/22 07:36:44;;;;;;;59.78;38.72;;;;;;;11.81;100.00;103220.91;4923168;28;20184;-74
2022/03/22 07:39:11;;;;;;;52.63;38.58;;;;;;;11.93;100.00;103216.06;4879828;28;20137;-74
2022/03/22 07:41:38;;;;;;;49.72;37.08;;;;;;;12.39;100.00;103217.38;4926709;28;20088;-73
2022/03/22 07:44:06;;;;;;;52.17;38.50;;;;;;;12.64;84.91;103222.81;4920788;28;20095;-75
2022/03/22 07:46:36;;;;;;;51.42;36.60;;;;;;;12.89;85.41;103216.38;4929243;28;20027;-75
2022/03/22 07:54:31;;;;;;;52.67;35.78;;;;;;;14.11;65.57;103216.16;4914203;28;20116;-72
2022/03/22 07:56:56;;;;;;;47.28;36.20;;;;;;;14.45;66.08;103215.75;4929398;28;20034;-74
2022/03/22 07:59:24;;;;;;;53.83;37.05;;;;;;;14.69;60.95;103222.91;4905681;28;20034;-73
2022/03/22 08:01:51;;;;;;;46.60;35.80;;;;;;;14.64;60.75;103228.03;4925795;28;20125;-73
2022/03/22 08:04:17;;;;;;;55.15;37.53;;;;;;;14.57;60.06;103227.91;4926856;28;20075;-73
2022/03/22 08:06:42;;;;;;;50.58;38.13;;;;;;;14.46;59.44;103223.75;4903591;28;23641;-73
2022/03/22 08:09:08;;;;;;;48.50;35.38;;;;;;;14.42;59.88;103230.53;4919486;28;20089;-73
2022/03/22 08:11:33;;;;;;;51.67;35.40;;;;;;;14.67;59.32;103233.06;4908584;28;20054;-73
2022/03/22 08:14:00;;;;;;;47.38;34.72;;;;;;;14.98;59.01;103227.56;4922508;28;20157;-74
2022/03/22 08:16:26;;;;;;;48.08;36.08;;;;;;;15.04;57.44;103229.53;4907954;28;20065;-73
2022/03/22 08:18:52;;;;;;;48.58;35.08;;;;;;;15.38;56.81;103236.34;4923263;28;20869;-74
2022/03/22 08:21:18;;;;;;;46.97;34.40;;;;;;;15.45;56.75;103238.09;4919526;28;20057;-74
2022/03/22 08:23:44;;;;;;;45.95;35.90;;;;;;;15.77;55.87;103238.78;4913963;28;21725;-73
2022/03/22 08:26:09;;;;;;;44.03;35.15;;;;;;;16.08;54.69;103237.69;4924482;28;20049;-73
2022/03/22 08:28:35;;;;;;;44.40;33.40;;;;;;;16.19;53.69;103239.91;4908352;28;23263;-73
2022/03/22 08:31:01;;;;;;;47.03;35.75;;;;;;;16.42;53.46;103235.13;4923126;28;20053;-73
2022/03/22 08:33:27;;;;;;;41.92;33.58;;;;;;;16.71;52.51;103227.88;4907917;28;20042;-73
2022/03/22 08:35:52;;;;;;;52.85;33.97;;;;;;;16.82;51.38;103234.72;4906792;28;20194;-73
2022/03/22 08:38:19;;;;;;;44.05;33.65;;;;;;;17.13;50.60;103237.88;4908235;28;20654;-73
2022/03/22 08:40:45;;;;;;;45.22;34.85;;;;;;;17.14;50.17;103244.19;4908541;28;20066;-73
2022/03/22 08:43:11;;;;;;;42.42;35.03;;;;;;;17.44;49.90;103233.88;4924784;28;20754;-73
2022/03/22 08:45:37;;;;;;;47.38;33.78;;;;;;;17.61;49.82;103242.56;4909665;28;21316;-74
2022/03/22 08:48:12;;;;;;;45.38;35.38;;;;;;;18.06;48.17;103237.56;4922445;28;20572;-74
2022/03/22 08:50:45;;;;;;;45.70;33.42;;;;;;;18.57;45.72;103242.53;4906741;28;20061;-74
2022/03/22 08:53:12;;;;;;;46.45;33.28;;;;;;;18.86;44.76;103232.28;4918702;28;20595;-72
2022/03/22 08:55:38;;;;;;;44.38;32.85;;;;;;;18.70;44.45;103239.78;4920743;28;20370;-72
2022/03/22 08:58:06;;;;;;;42.30;34.22;;;;;;;18.60;45.28;103236.63;4922037;28;20026;-71
2022/03/22 09:00:33;;;;;;;41.40;33.70;;;;;;;18.92;44.75;103232.28;4907958;28;20046;-71
2022/03/22 09:03:00;;;;;;;42.13;33.10;;;;;;;18.84;42.74;103230.56;4918150;28;20364;-74
2022/03/22 09:08:09;;;;;;;40.67;32.90;;;;;;;19.56;42.06;103236.16;4914016;28;20510;-73
2022/03/22 09:10:36;;;;;;;42.95;32.17;;;;;;;20.15;38.50;103239.72;4924599;28;20133;-74
2022/03/22 09:13:06;;;;;;;43.25;31.73;;;;;;;20.15;38.03;103237.81;4926269;28;20049;-74
2022/03/22 09:15:33;;;;;;;41.20;30.73;;;;;;;20.28;38.18;103236.88;4931387;28;20077;-74
2022/03/22 09:17:58;;;;;;;41.15;31.08;;;;;;;20.32;37.01;103242.75;4910980;28;20051;-74
2022/03/22 09:20:25;;;;;;;42.28;29.33;;;;;;;20.16;37.30;103235.91;4926212;28;20038;-72
2022/03/22 09:22:52;;;;;;;43.33;30.52;;;;;;;20.32;37.14;103229.91;4924377;28;20483;-74
2022/03/22 09:25:21;;;;;;;39.65;31.10;;;;;;;20.20;36.41;103229.78;4927080;28;20035;-74
2022/03/22 09:27:47;;;;;;;41.85;32.13;;;;;;;19.93;36.38;103236.44;4927669;28;20172;-74
2022/03/22 09:30:13;;;;;;;39.05;30.70;;;;;;;20.18;37.43;103237.38;4913821;28;20730;-74
2022/03/22 09:32:40;;;;;;;37.35;29.67;;;;;;;20.40;37.86;103221.44;4931526;28;20026;-74
2022/03/22 09:35:10;;;;;;;39.95;32.00;;;;;;;20.15;36.76;103231.50;4910264;28;27268;-74
2022/03/22 09:37:36;;;;;;;40.72;30.55;;;;;;;20.38;35.93;103225.47;4930419;28;20045;-74
2022/03/22 09:40:03;;;;;;;40.55;31.02;;;;;;;20.54;35.51;103230.44;4910560;28;20046;-74
2022/03/22 09:42:29;;;;;;;43.35;31.38;;;;;;;20.71;35.88;103231.56;4924800;28;20133;-74
2022/03/22 09:44:55;;;;;;;40.97;31.17;;;;;;;20.36;36.20;103233.91;4912063;28;20055;-74
2022/03/22 09:47:21;;;;;;;40.35;30.98;;;;;;;20.43;36.64;103220.19;4925308;28;21131;-74
2022/03/22 09:49:46;;;;;;;39.88;29.67;;;;;;;20.53;36.12;103228.75;4926586;28;20042;-74
2022/03/22 09:52:14;;;;;;;42.17;30.45;;;;;;;20.55;36.94;103231.28;4914435;28;20147;-73
2022/03/22 09:54:40;;;;;;;41.78;31.23;;;;;;;20.56;36.30;103231.03;4924254;28;20117;-74
2022/03/22 09:57:07;;;;;;;41.10;30.38;;;;;;;20.54;36.09;103224.97;4913226;28;20042;-74
2022/03/22 09:59:33;;;;;;;42.13;30.40;;;;;;;20.19;37.29;103232.75;4925555;28;20080;-74
2022/03/22 10:02:03;;;;;;;42.55;31.33;;;;;;;20.20;37.08;103213.34;4910324;28;20062;-73
2022/03/22 10:04:39;;;;;;;39.22;29.83;;;;;;;20.29;37.22;103218.56;4925850;28;20089;-74
2022/03/22 10:07:07;;;;;;;36.17;28.67;;;;;;;20.25;37.92;103227.25;4911608;28;20050;-74
2022/03/22 10:09:40;;;;;;;41.33;29.90;;;;;;;20.46;37.13;103227.91;4926053;28;20042;-73
2022/03/22 10:12:13;;;;;;;37.60;30.42;;;;;;;20.54;37.94;103218.66;4925309;28;20148;-73
2022/03/22 10:14:41;;;;;;;41.28;30.98;;;;;;;20.80;37.07;103221.16;4915440;28;23468;-73
2022/03/22 10:17:12;;;;;;;41.08;30.05;;;;;;;21.19;36.12;103211.72;4924934;28;20035;-73
2022/03/22 10:19:49;;;;;;;37.70;30.92;;;;;;;21.31;36.46;103213.72;4914589;28;20153;-73
2022/03/22 10:22:16;;;;;;;40.05;29.45;;;;;;;21.42;36.30;103213.00;4932814;28;20033;-74
2022/03/22 10:24:49;;;;;;;44.58;30.75;;;;;;;21.55;36.01;103210.13;4910616;28;20058;-74
2022/03/22 10:27:18;;;;;;;;;;;;;;;21.56;34.61;103213.69;4923793;28;20055;-74
2022/03/22 10:29:44;;;;;;;44.92;29.52;;;;;;;22.07;34.75;103210.47;4911157;28;19922;-74
2022/03/22 10:32:10;;;;;;;38.25;29.48;;;;;;;21.75;35.09;103211.75;4925980;28;20111;-74
2022/03/22 10:34:36;;;;;;;37.53;30.30;;;;;;;21.90;35.54;103212.19;4908504;28;23253;-74
2022/03/22 10:37:01;;;;;;;37.80;29.92;;;;;;;21.93;35.76;103211.72;4924685;28;20038;-74
2022/03/22 10:39:27;;;;;;;38.42;29.23;;;;;;;22.17;34.85;103211.84;4925084;28;20042;-74
2022/03/22 10:41:52;;;;;;;42.72;29.00;;;;;;;22.24;34.90;103209.84;4911902;28;20058;-74
2022/03/22 10:44:18;;;;;;;39.10;29.85;;;;;;;22.33;34.62;103205.69;4930704;28;20058;-73
2022/03/22 10:46:46;;;;;;;39.08;30.27;;;;;;;22.33;34.31;103201.03;4908991;28;20524;-74
2022/03/22 10:49:14;;;;;;;43.72;30.30;;;;;;;22.35;34.69;103204.38;4922765;28;20031;-74
2022/03/22 10:51:47;;;;;;;38.67;29.77;;;;;;;22.92;34.05;103198.41;4914462;28;20051;-74
2022/03/22 10:54:16;;;;;;;40.47;30.20;;;;;;;23.09;33.57;103204.81;4924325;28;20030;-74
2022/03/22 10:56:51;;;;;;;39.30;29.77;;;;;;;23.38;32.77;103202.19;4923702;28;20043;-74
2022/03/22 10:59:21;;;;;;;41.00;29.15;;;;;;;23.49;32.88;103201.31;4932150;28;20201;-74
2022/03/22 11:01:48;;;;;;;40.95;29.25;;;;;;;23.15;32.15;103199.47;4926043;28;20149;-74
2022/03/22 11:04:19;;;;;;;36.55;29.42;;;;;;;23.05;32.04;103198.16;4908473;28;20082;-73
2022/03/22 11:06:48;;;;;;;40.33;28.00;;;;;;;23.02;32.42;103201.38;4925526;28;20046;-74
2022/03/22 11:09:20;;;;;;;37.28;27.35;;;;;;;23.19;31.96;103200.66;4914713;28;20050;-73
2022/03/22 11:11:46;;;;;;;38.20;29.23;;;;;;;23.30;31.96;103191.53;4927749;28;20038;-73
2022/03/22 11:14:14;;;;;;;35.97;27.30;;;;;;;23.60;31.59;103188.63;4903810;28;20733;-73
2022/03/22 11:16:40;;;;;;;42.05;27.98;;;;;;;23.71;30.44;103196.03;4906222;28;20033;-73
2022/03/22 11:19:06;;;;;;;38.78;27.40;;;;;;;23.37;31.33;103192.25;4894110;28;20051;-73
2022/03/22 11:21:32;;;;;;;38.08;28.52;;;;;;;23.35;31.56;103191.66;4923202;28;20092;-73
2022/03/22 11:24:12;;;;;;;37.88;28.20;;;;;;;23.31;32.02;103190.47;4930349;28;20114;-73
2022/03/22 11:26:45;;;;;;;37.00;29.02;;;;;;;23.26;31.85;103191.19;4915794;28;20148;-73
2022/03/22 11:29:17;;;;;;;38.10;28.73;;;;;;;23.16;32.34;103192.88;4938630;28;20162;-73
2022/03/22 11:34:08;;;;;;;39.08;29.42;;;;;;;23.34;31.94;103178.97;4906680;28;20051;-73
2022/03/22 11:34:29;;;;;;;38.97;29.05;;;;;;;23.66;32.38;103189.53;4924430;28;20518;-73